Time;durP1;ratioP1;P1;durP2;ratioP2;P2;SDS_P1;SDS_P2;PMS_P1;PMS_P2;Temp;Humidity;BMP_temperature;BMP_pressure;BME280_temperature;BME280_humidity;BME280_pressure;Samples;Min_cycle;Max_cycle;Signal;HPM_P1;HPM_P2
2023/08/25 00:01:50;;;;;;;27.05;22.55;;;;;;;19.62;100.00;100804.06;5065334;28;20047;-79
2023/08/25 00:04:17;;;;;;;26.42;21.58;;;;;;;19.62;100.00;100808.50;5061778;28;20051;-79
2023/08/25 00:06:45;;;;;;;27.98;22.55;;;;;;;19.62;100.00;100813.84;5072477;28;20056;-78
2023/08/25 00:09:13;;;;;;;23.75;21.17;;;;;;;19.58;100.00;100804.19;5055741;28;20040;-78
2023/08/25 00:11:41;;;;;;;29.92;23.05;;;;;;;19.55;100.00;100799.84;5040681;28;20436;-79
2023/08/25 00:14:09;;;;;;;31.45;21.65;;;;;;;19.52;100.00;100804.44;5075475;28;20413;-79
2023/08/25 00:16:36;;;;;;;26.85;23.65;;;;;;;19.50;100.00;100803.59;5018118;28;20056;-78
2023/08/25 00:19:05;;;;;;;28.17;22.98;;;;;;;19.47;100.00;100812.63;5066364;28;20040;-79
2023/08/25 00:21:33;;;;;;;25.23;22.48;;;;;;;19.42;100.00;100810.09;5073217;28;20420;-78
2023/08/25 00:24:00;;;;;;;30.77;24.30;;;;;;;19.41;100.00;100813.69;5074075;28;20056;-79
2023/08/25 00:26:28;;;;;;;29.77;24.52;;;;;;;19.38;100.00;100803.09;5053337;28;20059;-78
2023/08/25 00:28:55;;;;;;;30.17;26.15;;;;;;;19.36;100.00;100806.75;5090967;28;20055;-79
2023/08/25 00:31:23;;;;;;;32.28;25.75;;;;;;;19.33;100.00;100805.03;5018338;28;20726;-78
2023/08/25 00:33:51;;;;;;;30.00;25.13;;;;;;;19.32;100.00;100797.97;5066901;28;20047;-79
2023/08/25 00:36:18;;;;;;;32.17;25.92;;;;;;;19.30;100.00;100797.16;5062525;28;20044;-78
2023/08/25 00:38:46;;;;;;;30.92;25.50;;;;;;;19.27;100.00;100802.59;5072461;28;20036;-79
2023/08/25 00:41:13;;;;;;;33.28;25.58;;;;;;;19.26;100.00;100811.50;5088241;28;20063;-79
2023/08/25 00:43:41;;;;;;;29.50;26.25;;;;;;;19.22;100.00;100804.53;5052062;28;20521;-78
2023/08/25 00:46:10;;;;;;;31.98;24.27;;;;;;;19.21;100.00;100808.16;5019316;28;20051;-79
2023/08/25 00:48:38;;;;;;;28.48;24.90;;;;;;;19.19;100.00;100812.66;5046815;28;20540;-80
2023/08/25 00:51:07;;;;;;;26.65;23.85;;;;;;;19.17;100.00;100812.72;5053473;28;20048;-79
2023/08/25 00:53:35;;;;;;;31.65;25.75;;;;;;;19.14;100.00;100817.28;5066203;28;20452;-78
2023/08/25 00:56:03;;;;;;;28.33;23.73;;;;;;;19.11;100.00;100814.69;5072645;28;20044;-78
2023/08/25 00:58:31;;;;;;;29.58;24.85;;;;;;;19.08;100.00;100819.22;5068907;28;20055;-79
2023/08/25 01:01:01;;;;;;;32.08;26.02;;;;;;;19.05;100.00;100816.66;5020626;28;20505;-79
2023/08/25 01:03:29;;;;;;;28.90;24.58;;;;;;;19.03;100.00;100822.97;5072742;28;20044;-79
2023/08/25 01:05:58;;;;;;;28.50;25.05;;;;;;;18.99;100.00;100827.53;5076842;28;20055;-80
2023/08/25 01:08:25;;;;;;;29.25;24.67;;;;;;;18.97;100.00;100829.38;5088957;28;20048;-79
2023/08/25 01:11:02;;;;;;;28.70;24.80;;;;;;;18.93;100.00;100822.38;5054062;28;20055;-78
2023/08/25 01:13:49;;;;;;;30.88;25.00;;;;;;;18.92;100.00;100822.44;5080269;28;20061;-80
2023/08/25 01:16:24;;;;;;;31.27;26.45;;;;;;;18.89;100.00;100826.94;5074615;28;20052;-79
2023/08/25 01:18:53;;;;;;;30.63;26.60;;;;;;;18.86;100.00;100821.69;5054712;28;20051;-79
2023/08/25 01:21:23;;;;;;;34.85;26.92;;;;;;;18.84;100.00;100833.34;5050691;28;20379;-79
2023/08/25 01:24:10;;;;;;;32.55;25.40;;;;;;;18.82;100.00;100829.88;5068184;28;20048;-79
2023/08/25 01:26:38;;;;;;;28.80;25.20;;;;;;;18.79;100.00;100828.13;5070062;28;20056;-79
2023/08/25 01:29:06;;;;;;;30.75;25.40;;;;;;;18.78;100.00;100828.19;5053106;28;20037;-79
2023/08/25 01:31:34;;;;;;;33.17;26.40;;;;;;;18.77;100.00;100832.66;5081283;28;20051;-79
2023/08/25 01:34:02;;;;;;;38.20;28.90;;;;;;;18.75;100.00;100834.50;5032826;28;20485;-79
2023/08/25 01:36:45;;;;;;;33.22;27.63;;;;;;;18.74;100.00;100838.06;5060130;28;20041;-78
2023/08/25 01:39:15;;;;;;;34.08;27.55;;;;;;;18.74;100.00;100840.75;5082346;28;20041;-78
2023/08/25 01:41:49;;;;;;;38.47;30.25;;;;;;;18.75;100.00;100838.94;5058130;28;20053;-78
2023/08/25 01:44:19;;;;;;;34.97;28.35;;;;;;;18.76;100.00;100836.22;5085737;28;20405;-78
2023/08/25 01:46:54;;;;;;;42.70;31.58;;;;;;;18.79;100.00;100835.25;5088224;28;20059;-79
2023/08/25 01:49:23;;;;;;;39.70;31.17;;;;;;;18.81;100.00;100839.69;5053848;28;20046;-78
2023/08/25 01:51:52;;;;;;;44.63;33.70;;;;;;;18.82;100.00;100835.19;5056951;28;20048;-78
2023/08/25 01:54:19;;;;;;;42.45;32.63;;;;;;;18.84;100.00;100834.22;5047940;28;20059;-78
2023/08/25 01:56:47;;;;;;;40.95;33.50;;;;;;;18.87;100.00;100828.78;5066022;28;20052;-78
2023/08/25 01:59:14;;;;;;;45.75;33.95;;;;;;;18.89;100.00;100834.97;5071125;28;20048;-78
2023/08/25 02:01:42;;;;;;;43.95;34.83;;;;;;;18.91;100.00;100832.25;5051068;28;20040;-80
2023/08/25 02:04:09;;;;;;;47.40;36.35;;;;;;;18.92;100.00;100827.78;5033766;28;20052;-79
2023/08/25 02:06:37;;;;;;;42.80;34.95;;;;;;;18.92;100.00;100819.75;5043982;28;20390;-80
2023/08/25 02:09:05;;;;;;;46.47;36.33;;;;;;;18.93;100.00;100819.72;5035913;28;20052;-80
2023/08/25 02:11:32;;;;;;;47.60;34.83;;;;;;;18.95;100.00;100825.00;5029950;28;20394;-78
2023/08/25 02:14:00;;;;;;;44.35;34.35;;;;;;;18.92;100.00;100812.63;5044421;28;20106;-78
2023/08/25 02:16:29;;;;;;;42.38;34.22;;;;;;;18.92;100.00;100815.28;5089210;28;20456;-79
2023/08/25 02:18:57;;;;;;;51.95;36.70;;;;;;;18.91;100.00;100818.91;5035499;28;20070;-78
2023/08/25 02:21:25;;;;;;;45.20;35.90;;;;;;;18.90;100.00;100814.47;5071397;28;20052;-78
2023/08/25 02:23:54;;;;;;;47.92;37.40;;;;;;;18.89;100.00;100816.28;5062458;28;20057;-78
2023/08/25 02:26:22;;;;;;;50.92;38.88;;;;;;;18.88;100.00;100819.88;5072514;28;20398;-80
2023/08/25 02:28:50;;;;;;;49.42;38.00;;;;;;;18.88;100.00;100810.97;5055570;28;20074;-79
2023/08/25 02:31:17;;;;;;;46.45;36.42;;;;;;;18.86;100.00;100813.69;5078238;28;20051;-79
2023/08/25 02:33:46;;;;;;;51.05;35.83;;;;;;;18.86;100.00;100810.16;5078994;28;20051;-79
2023/08/25 02:36:14;;;;;;;43.13;34.50;;;;;;;18.85;100.00;100808.41;5048587;28;20052;-78
2023/08/25 02:38:42;;;;;;;42.17;35.08;;;;;;;18.82;100.00;100806.69;5052823;28;20054;-78
2023/08/25 02:41:09;;;;;;;45.40;35.42;;;;;;;18.80;100.00;100800.53;5040208;28;20047;-80
2023/08/25 02:43:36;;;;;;;51.80;38.35;;;;;;;18.79;100.00;100800.56;5065879;28;20048;-80
2023/08/25 02:46:05;;;;;;;49.20;36.65;;;;;;;18.77;100.00;100802.41;5076012;28;20040;-79
2023/08/25 02:48:33;;;;;;;47.08;36.17;;;;;;;18.75;100.00;100802.47;5047389;28;20070;-79
2023/08/25 02:51:02;;;;;;;52.27;36.57;;;;;;;18.76;100.00;100814.00;5033571;28;20044;-79
2023/08/25 02:53:32;;;;;;;48.35;37.03;;;;;;;18.76;100.00;100812.22;5069712;28;20051;-79
2023/08/25 02:56:00;;;;;;;44.45;35.63;;;;;;;18.77;100.00;100807.72;5047533;28;20051;-79
2023/08/25 02:58:28;;;;;;;44.75;35.08;;;;;;;18.78;100.00;100809.50;5069234;28;20043;-79
2023/08/25 03:00:58;;;;;;;48.50;35.22;;;;;;;18.78;100.00;100807.69;5058464;28;20087;-79
2023/08/25 03:03:28;;;;;;;47.17;37.30;;;;;;;18.79;100.00;100805.88;5053983;28;20040;-79
2023/08/25 03:05:59;;;;;;;49.97;38.63;;;;;;;18.79;100.00;100800.56;5043657;28;20060;-79
2023/08/25 03:08:27;;;;;;;52.58;39.88;;;;;;;18.79;100.00;100803.22;5053409;28;20063;-78
2023/08/25 03:11:00;;;;;;;;;;;;;;;18.75;100.00;100797.13;5068431;28;20057;-78
2023/08/25 03:13:28;;;;;;;;;;;;;;;18.73;100.00;100796.28;5086248;28;20296;-78
2023/08/25 03:16:02;;;;;;;55.53;38.88;;;;;;;18.70;100.00;100799.94;5047567;28;19924;-78
2023/08/25 03:18:31;;;;;;;56.10;41.10;;;;;;;18.69;100.00;100798.19;5084102;28;20048;-78
2023/08/25 03:21:01;;;;;;;57.90;40.75;;;;;;;18.68;100.00;100799.09;5015881;28;20044;-78
2023/08/25 03:23:28;;;;;;;60.13;41.05;;;;;;;18.68;100.00;100801.78;5078914;28;20056;-79
2023/08/25 03:25:56;;;;;;;67.85;43.80;;;;;;;18.69;100.00;100800.88;5087439;28;20413;-79
2023/08/25 03:28:23;;;;;;;60.83;42.97;;;;;;;18.69;100.00;100790.19;5044598;28;20063;-78
2023/08/25 03:30:52;;;;;;;67.55;43.97;;;;;;;18.72;100.00;100791.00;5038407;28;20445;-78
2023/08/25 03:33:22;;;;;;;60.90;42.15;;;;;;;18.73;100.00;100784.72;5071560;28;20044;-78
2023/08/25 03:35:50;;;;;;;61.65;41.67;;;;;;;18.73;100.00;100774.91;5081063;28;20488;-79
2023/08/25 03:38:19;;;;;;;64.63;43.22;;;;;;;18.74;100.00;100784.69;5013311;28;20044;-78
2023/08/25 03:40:46;;;;;;;65.05;43.58;;;;;;;18.74;100.00;100783.81;5060702;28;20032;-78
2023/08/25 03:43:14;;;;;;;64.47;41.88;;;;;;;18.74;100.00;100778.50;5051254;28;20045;-77
2023/08/25 03:45:42;;;;;;;62.95;42.53;;;;;;;18.75;100.00;100773.09;5050800;28;20048;-78
2023/08/25 03:48:11;;;;;;;62.20;40.67;;;;;;;18.75;100.00;100774.88;5067652;28;20056;-78
2023/08/25 03:50:39;;;;;;;66.68;41.45;;;;;;;18.74;100.00;100773.16;5076782;28;20036;-78
2023/08/25 03:53:06;;;;;;;62.03;41.55;;;;;;;18.74;100.00;100774.00;5029368;28;20044;-78
2023/08/25 03:55:34;;;;;;;58.35;37.92;;;;;;;18.74;100.00;100775.81;5059462;28;20051;-79
2023/08/25 03:58:02;;;;;;;60.83;39.35;;;;;;;18.74;100.00;100779.34;5075756;28;20421;-79
2023/08/25 04:00:29;;;;;;;67.40;42.67;;;;;;;18.74;100.00;100779.34;5043768;28;20052;-78
2023/08/25 04:02:57;;;;;;;60.92;39.85;;;;;;;18.76;100.00;100784.66;5026714;28;20052;-78
2023/08/25 04:05:25;;;;;;;57.35;39.55;;;;;;;18.76;100.00;100784.66;5067146;28;20516;-78
2023/08/25 04:07:55;;;;;;;62.50;39.10;;;;;;;18.78;100.00;100780.13;5033070;28;20047;-79
2023/08/25 04:10:23;;;;;;;66.38;41.10;;;;;;;18.79;100.00;100784.53;5045499;28;20067;-81
2023/08/25 04:12:52;;;;;;;61.78;41.58;;;;;;;18.80;100.00;100788.97;5079753;28;20059;-80
2023/08/25 04:15:21;;;;;;;54.53;38.42;;;;;;;18.81;100.00;100788.06;5038924;28;20047;-79
2023/08/25 04:17:49;;;;;;;61.95;40.05;;;;;;;18.82;100.00;100780.00;5076845;28;20417;-79
2023/08/25 04:20:17;;;;;;;62.60;40.92;;;;;;;18.83;100.00;100783.56;5059848;28;20036;-79
2023/08/25 04:22:45;;;;;;;52.88;38.08;;;;;;;18.83;100.00;100781.78;5044558;28;20048;-79
2023/08/25 04:25:14;;;;;;;55.95;40.72;;;;;;;18.84;100.00;100780.81;4997550;28;20052;-78
2023/08/25 04:27:41;;;;;;;55.40;39.50;;;;;;;18.83;100.00;100767.56;5083147;28;20523;-79
2023/08/25 04:30:09;;;;;;;59.05;38.67;;;;;;;18.82;100.00;100773.81;5037312;28;20053;-78
2023/08/25 04:32:39;;;;;;;52.60;38.28;;;;;;;18.79;100.00;100764.06;5064936;28;20866;-78
2023/08/25 04:35:08;;;;;;;48.03;37.25;;;;;;;18.79;100.00;100768.50;5054194;28;20059;-79
2023/08/25 04:37:37;;;;;;;56.80;40.42;;;;;;;18.78;100.00;100769.47;5071782;28;20059;-78
2023/08/25 04:40:05;;;;;;;58.10;40.00;;;;;;;18.76;100.00;100771.31;5027120;28;20044;-78
2023/08/25 04:42:32;;;;;;;58.80;41.40;;;;;;;18.75;100.00;100761.53;5053150;28;20048;-79
2023/08/25 04:45:03;;;;;;;52.33;38.55;;;;;;;18.75;100.00;100764.19;5073215;28;20052;-80
2023/08/25 04:47:33;;;;;;;52.08;38.38;;;;;;;18.74;100.00;100774.00;5066683;28;20045;-77
2023/08/25 04:50:03;;;;;;;58.90;40.35;;;;;;;18.74;100.00;100770.47;5082888;28;20047;-78
2023/08/25 04:52:31;;;;;;;52.47;40.08;;;;;;;18.73;100.00;100761.56;5076757;28;20776;-78
2023/08/25 04:54:59;;;;;;;59.50;40.88;;;;;;;18.74;100.00;100759.81;5018543;28;20500;-79
2023/08/25 04:57:26;;;;;;;58.90;39.38;;;;;;;18.74;100.00;100754.47;5086824;28;20052;-78
2023/08/25 04:59:54;;;;;;;59.10;39.53;;;;;;;18.74;100.00;100757.13;5075849;28;20060;-78
2023/08/25 05:02:21;;;;;;;56.60;40.60;;;;;;;18.75;100.00;100759.75;5045488;28;20824;-79
2023/08/25 05:04:50;;;;;;;55.75;39.65;;;;;;;18.75;100.00;100756.19;5058226;28;20531;-79
2023/08/25 05:07:18;;;;;;;56.45;38.38;;;;;;;18.76;100.00;100760.63;5057693;28;20052;-79
2023/08/25 05:09:45;;;;;;;56.47;40.50;;;;;;;18.76;100.00;100755.28;5015916;28;20051;-78
2023/08/25 05:12:13;;;;;;;52.20;37.88;;;;;;;18.77;100.00;100757.03;5063189;28;20048;-79
2023/08/25 05:14:42;;;;;;;49.95;35.50;;;;;;;18.79;100.00;100756.06;5073520;28;20079;-78
2023/08/25 05:17:10;;;;;;;57.03;39.80;;;;;;;18.80;100.00;100752.50;5065925;28;20052;-79
2023/08/25 05:19:37;;;;;;;46.92;37.60;;;;;;;18.83;100.00;100756.88;5054252;28;20053;-79
2023/08/25 05:22:06;;;;;;;57.45;39.13;;;;;;;18.85;100.00;100749.69;5073846;28;20512;-79
2023/08/25 05:24:37;;;;;;;57.35;39.33;;;;;;;18.87;100.00;100756.72;5052608;28;20405;-79
2023/08/25 05:27:06;;;;;;;53.10;39.30;;;;;;;18.88;100.00;100761.13;5015427;28;20048;-79
2023/08/25 05:29:33;;;;;;;53.20;38.53;;;;;;;18.90;100.00;100766.41;5082368;28;20052;-78
2023/08/25 05:32:10;;;;;;;55.47;40.78;;;;;;;18.92;100.00;100771.69;5050634;28;20870;-78
2023/08/25 05:35:00;;;;;;;56.60;38.70;;;;;;;18.93;100.00;100770.78;5084000;28;20056;-80
2023/08/25 05:37:28;;;;;;;64.85;43.13;;;;;;;18.93;100.00;100769.00;5054074;28;20052;-79
2023/08/25 05:39:56;;;;;;;54.17;39.55;;;;;;;18.96;100.00;100774.25;5060940;28;20055;-78
2023/08/25 05:42:27;;;;;;;61.15;42.55;;;;;;;18.97;100.00;100775.09;5044110;28;20056;-79
2023/08/25 05:44:54;;;;;;;60.78;41.80;;;;;;;18.98;100.00;100774.16;5072361;28;20040;-78
2023/08/25 05:47:22;;;;;;;56.53;38.72;;;;;;;18.99;100.00;100775.94;5079348;28;20036;-78
2023/08/25 05:49:50;;;;;;;58.72;40.97;;;;;;;19.01;100.00;100779.41;5057420;28;20052;-80
2023/08/25 05:52:18;;;;;;;57.85;42.53;;;;;;;19.02;100.00;100773.16;5085770;28;20037;-79
2023/08/25 05:54:48;;;;;;;56.25;39.83;;;;;;;19.03;100.00;100770.41;5046437;28;20052;-80
2023/08/25 05:57:16;;;;;;;64.63;41.28;;;;;;;19.06;100.00;100780.16;5036177;28;20056;-80
2023/08/25 05:59:44;;;;;;;57.92;40.90;;;;;;;19.06;100.00;100773.00;5056876;28;20048;-79
2023/08/25 06:02:13;;;;;;;65.82;42.97;;;;;;;19.08;100.00;100783.63;5064034;28;20041;-81
2023/08/25 06:04:41;;;;;;;68.47;41.60;;;;;;;19.06;100.00;100789.03;5083977;28;20044;-78
2023/08/25 06:07:09;;;;;;;74.05;42.90;;;;;;;19.06;100.00;100785.47;5030465;28;20041;-78
2023/08/25 06:09:36;;;;;;;69.20;45.72;;;;;;;19.07;100.00;100787.22;5085719;28;20051;-80
2023/08/25 06:12:06;;;;;;;71.65;44.00;;;;;;;19.07;100.00;100781.88;5010492;28;20052;-79
2023/08/25 06:14:35;;;;;;;74.72;44.92;;;;;;;19.07;100.00;100788.13;5056721;28;20051;-78
2023/08/25 06:17:03;;;;;;;66.82;41.95;;;;;;;19.08;100.00;100784.50;5048016;28;20052;-79
2023/08/25 06:19:30;;;;;;;69.10;43.88;;;;;;;19.12;100.00;100787.94;5058523;28;20051;-79
2023/08/25 06:21:58;;;;;;;82.30;47.80;;;;;;;19.12;100.00;100787.94;5071415;28;20020;-79
2023/08/25 06:24:25;;;;;;;80.68;46.83;;;;;;;19.12;100.00;100795.09;5069243;28;20040;-78
2023/08/25 06:26:53;;;;;;;90.10;49.22;;;;;;;19.10;100.00;100787.13;5053511;28;20501;-79
2023/08/25 06:29:21;;;;;;;93.47;49.30;;;;;;;19.09;100.00;100788.03;5012021;28;20064;-78
2023/08/25 06:31:49;;;;;;;84.10;46.40;;;;;;;19.09;100.00;100782.69;5072869;28;20043;-78
2023/08/25 06:34:16;;;;;;;98.65;51.17;;;;;;;19.08;100.00;100784.50;5076306;28;20048;-79
2023/08/25 06:36:44;;;;;;;92.60;52.20;;;;;;;19.10;100.00;100781.78;5060759;28;20048;-79
2023/08/25 06:39:11;;;;;;;96.00;49.78;;;;;;;19.11;100.00;100788.00;5075398;28;20404;-78
2023/08/25 06:41:38;;;;;;;93.50;50.22;;;;;;;19.12;100.00;100781.75;5071616;28;20044;-78
2023/08/25 06:44:08;;;;;;;86.97;49.83;;;;;;;19.13;100.00;100780.78;5002011;28;20060;-78
2023/08/25 06:46:35;;;;;;;107.53;52.17;;;;;;;19.17;100.00;100783.34;5069688;28;20059;-78
2023/08/25 06:49:03;;;;;;;101.32;50.70;;;;;;;19.20;100.00;100779.69;5064720;28;20048;-79
2023/08/25 06:51:30;;;;;;;97.70;51.78;;;;;;;19.23;100.00;100775.09;5073781;28;20047;-79
2023/08/25 06:54:01;;;;;;;95.70;51.93;;;;;;;19.27;100.00;100778.53;5048404;28;20055;-79
2023/08/25 06:56:32;;;;;;;97.80;50.30;;;;;;;19.33;100.00;100780.13;5072936;28;20055;-79
2023/08/25 06:59:03;;;;;;;91.35;46.78;;;;;;;19.36;100.00;100783.59;5014436;28;20055;-80
2023/08/25 07:01:30;;;;;;;80.50;46.78;;;;;;;19.39;100.00;100783.44;5065138;28;20048;-79
2023/08/25 07:03:59;;;;;;;74.03;44.28;;;;;;;19.42;100.00;100783.34;5087543;28;20056;-79
2023/08/25 07:06:27;;;;;;;71.13;44.42;;;;;;;19.44;100.00;100792.19;5042267;28;20045;-79
2023/08/25 07:08:54;;;;;;;78.90;46.13;;;;;;;19.45;100.00;100785.94;5063196;28;20070;-78
2023/08/25 07:11:26;;;;;;;68.60;41.28;;;;;;;19.46;100.00;100798.34;5083142;28;20058;-78
2023/08/25 07:13:53;;;;;;;61.30;39.70;;;;;;;19.48;100.00;100788.47;5084492;28;20052;-79
2023/08/25 07:16:21;;;;;;;59.13;38.08;;;;;;;19.53;100.00;100790.13;5003223;28;20063;-78
2023/08/25 07:18:48;;;;;;;58.10;37.58;;;;;;;19.57;100.00;100791.78;5069549;28;20052;-79
2023/08/25 07:21:16;;;;;;;61.30;38.47;;;;;;;19.59;100.00;100793.47;5053564;28;20052;-79
2023/08/25 07:23:43;;;;;;;53.63;37.25;;;;;;;19.63;100.00;100794.22;5052136;28;20060;-79
2023/08/25 07:26:11;;;;;;;53.05;35.88;;;;;;;19.68;100.00;100797.63;5071014;28;20059;-79
2023/08/25 07:28:39;;;;;;;53.88;33.97;;;;;;;19.75;100.00;100796.50;5084901;28;20036;-80
2023/08/25 07:31:07;;;;;;;50.50;35.50;;;;;;;19.80;100.00;100799.88;5010536;28;20056;-78
2023/08/25 07:33:34;;;;;;;47.65;33.15;;;;;;;19.86;100.00;100801.47;5064973;28;20421;-78
2023/08/25 07:36:04;;;;;;;47.97;31.25;;;;;;;19.95;100.00;100795.78;5085373;28;20041;-78
2023/08/25 07:38:32;;;;;;;41.33;28.67;;;;;;;20.02;100.00;100817.84;5032969;28;20059;-78
2023/08/25 07:41:00;;;;;;;45.30;29.40;;;;;;;20.05;100.00;100807.88;5059791;28;20059;-79
2023/08/25 07:43:28;;;;;;;37.95;26.33;;;;;;;20.08;100.00;100809.59;5077469;28;20048;-79
2023/08/25 07:45:56;;;;;;;39.08;28.05;;;;;;;20.11;100.00;100804.09;5003699;28;20055;-80
2023/08/25 07:48:23;;;;;;;36.55;25.90;;;;;;;20.16;100.00;100801.28;5060530;28;20052;-79
2023/08/25 07:50:51;;;;;;;37.17;25.95;;;;;;;20.19;100.00;100798.50;5047702;28;20071;-78
2023/08/25 07:53:19;;;;;;;39.17;24.45;;;;;;;20.22;100.00;100790.31;5049414;28;20481;-79
2023/08/25 07:55:47;;;;;;;29.10;20.92;;;;;;;20.24;100.00;100785.78;5045652;28;20074;-80
2023/08/25 07:58:16;;;;;;;31.83;21.15;;;;;;;20.25;100.00;100776.84;5076483;28;20044;-79
2023/08/25 08:00:43;;;;;;;31.65;20.55;;;;;;;20.28;100.00;100782.06;5074668;28;20032;-79
2023/08/25 08:03:13;;;;;;;24.38;18.83;;;;;;;20.32;100.00;100791.75;5015285;28;20515;-80
2023/08/25 08:05:43;;;;;;;21.30;18.00;;;;;;;20.35;100.00;100793.41;5081793;28;20603;-80
2023/08/25 08:08:11;;;;;;;26.38;19.02;;;;;;;20.36;100.00;100789.78;5051792;28;20059;-79
2023/08/25 08:10:39;;;;;;;24.33;19.95;;;;;;;20.37;100.00;100789.75;5069027;28;20055;-79
2023/08/25 08:13:07;;;;;;;28.77;19.58;;;;;;;20.39;100.00;100787.00;5078537;28;20041;-79
2023/08/25 08:15:36;;;;;;;21.98;18.50;;;;;;;20.42;100.00;100792.25;5040895;28;20059;-79
2023/08/25 08:18:04;;;;;;;23.80;17.20;;;;;;;20.44;100.00;100791.25;4999705;28;20151;-78
2023/08/25 08:20:33;;;;;;;22.67;17.15;;;;;;;20.46;100.00;100804.56;5061620;28;20044;-80
2023/08/25 08:23:01;;;;;;;24.92;16.80;;;;;;;20.45;100.00;100795.69;5061682;28;20048;-78
2023/08/25 08:25:30;;;;;;;24.90;16.83;;;;;;;20.47;100.00;100794.75;5059912;28;20543;-79
2023/08/25 08:27:57;;;;;;;23.35;17.02;;;;;;;20.47;100.00;100786.72;5081610;28;20051;-79
2023/08/25 08:30:25;;;;;;;22.27;16.15;;;;;;;20.49;100.00;100790.19;5078752;28;20481;-80
2023/08/25 08:32:52;;;;;;;22.67;17.52;;;;;;;20.52;100.00;100779.38;5048126;28;20158;-79
2023/08/25 08:35:20;;;;;;;23.38;17.00;;;;;;;20.54;100.00;100765.00;5045868;28;20048;-78
2023/08/25 08:37:48;;;;;;;23.13;16.15;;;;;;;20.64;100.00;100768.19;5053102;28;20064;-79
2023/08/25 08:40:15;;;;;;;25.35;17.65;;;;;;;20.74;100.00;100774.09;5060690;28;20059;-79
2023/08/25 08:42:45;;;;;;;21.65;15.63;;;;;;;20.83;100.00;100779.03;5065877;28;20044;-81
2023/08/25 08:45:17;;;;;;;20.33;14.55;;;;;;;20.91;100.00;100781.44;5086194;28;20048;-79
2023/08/25 08:47:45;;;;;;;20.88;15.57;;;;;;;21.01;100.00;100777.44;5077213;28;20060;-79
2023/08/25 08:50:14;;;;;;;19.63;15.73;;;;;;;21.11;100.00;100785.97;5046524;28;20048;-80
2023/08/25 08:52:43;;;;;;;21.63;15.27;;;;;;;21.21;100.00;100787.34;5083080;28;20035;-78
2023/08/25 08:55:11;;;;;;;22.83;16.17;;;;;;;21.31;100.00;100782.44;5037603;28;20051;-78
2023/08/25 08:57:38;;;;;;;24.45;15.65;;;;;;;21.37;100.00;100782.19;5089694;28;20063;-78
2023/08/25 09:00:10;;;;;;;16.48;12.85;;;;;;;21.41;100.00;100778.44;5054690;28;20076;-79
2023/08/25 09:02:38;;;;;;;20.25;14.30;;;;;;;21.43;100.00;100772.03;5069664;28;20039;-78
2023/08/25 09:05:06;;;;;;;18.98;13.15;;;;;;;21.45;100.00;100776.53;5063223;28;20056;-78
2023/08/25 09:07:36;;;;;;;19.08;12.90;;;;;;;21.44;100.00;100778.34;5039007;28;20036;-79
2023/08/25 09:10:05;;;;;;;21.50;13.90;;;;;;;21.40;100.00;100784.75;5058134;28;20047;-80
2023/08/25 09:12:34;;;;;;;18.70;14.13;;;;;;;21.36;100.00;100781.31;5056395;28;20048;-78
2023/08/25 09:15:06;;;;;;;17.05;12.50;;;;;;;21.33;100.00;100785.94;5067208;28;20040;-80
2023/08/25 09:17:35;;;;;;;16.70;13.25;;;;;;;21.31;100.00;100788.66;5077442;28;20412;-80
2023/08/25 09:20:05;;;;;;;19.23;13.35;;;;;;;21.33;100.00;100802.00;5071568;28;20049;-79
2023/08/25 09:22:34;;;;;;;22.38;14.40;;;;;;;21.35;100.00;100808.19;5047992;28;20044;-80
2023/08/25 09:25:02;;;;;;;23.15;15.50;;;;;;;21.35;100.00;100811.72;5063996;28;20831;-79
2023/08/25 09:27:30;;;;;;;18.80;12.85;;;;;;;21.36;100.00;100820.63;5083568;28;20490;-79
2023/08/25 09:29:59;;;;;;;23.02;15.68;;;;;;;21.36;100.00;100820.63;5052140;28;20059;-78
2023/08/25 09:32:28;;;;;;;21.10;14.98;;;;;;;21.34;100.00;100823.41;5073826;28;20512;-79
2023/08/25 09:35:12;;;;;;;19.88;13.77;;;;;;;21.30;100.00;100824.44;5052834;28;20048;-79
2023/08/25 09:37:41;;;;;;;18.75;13.43;;;;;;;21.26;100.00;100817.47;5037391;28;20413;-79
2023/08/25 09:40:14;;;;;;;21.67;13.90;;;;;;;21.22;100.00;100823.91;5056172;28;20055;-78
2023/08/25 09:42:42;;;;;;;18.35;13.05;;;;;;;21.22;100.00;100826.56;5031384;28;20044;-79
2023/08/25 09:45:14;;;;;;;18.17;13.80;;;;;;;21.21;100.00;100825.72;5084870;28;20045;-78
2023/08/25 09:47:42;;;;;;;18.83;12.80;;;;;;;21.19;100.00;100826.69;5072551;28;20048;-82
2023/08/25 09:50:15;;;;;;;18.90;12.75;;;;;;;21.19;100.00;100826.69;5077836;28;20040;-81
2023/08/25 09:52:47;;;;;;;23.05;14.10;;;;;;;21.18;100.00;100830.31;5028661;28;20040;-80
2023/08/25 09:55:15;;;;;;;19.23;13.75;;;;;;;21.15;100.00;100825.97;5075693;28;20142;-81
2023/08/25 09:57:48;;;;;;;19.10;13.98;;;;;;;21.11;100.00;100827.00;5061194;28;20575;-81
2023/08/25 10:00:16;;;;;;;17.40;12.77;;;;;;;21.12;100.00;100826.09;5073977;28;20052;-80
2023/08/25 10:02:45;;;;;;;20.00;13.48;;;;;;;21.18;100.00;100828.50;5041480;28;20045;-80
2023/08/25 10:05:14;;;;;;;20.40;13.82;;;;;;;21.26;100.00;100822.81;5061386;28;20052;-81
2023/08/25 10:07:43;;;;;;;17.70;13.40;;;;;;;21.35;100.00;100814.41;5037570;28;20056;-82
2023/08/25 10:10:11;;;;;;;17.70;11.75;;;;;;;21.48;100.00;100813.94;5060757;28;20067;-81
2023/08/25 10:12:41;;;;;;;16.38;11.02;;;;;;;21.58;100.00;100813.44;5054759;28;20503;-82
2023/08/25 10:15:13;;;;;;;14.07;11.10;;;;;;;21.68;100.00;100819.31;5086221;28;20051;-81
2023/08/25 10:17:44;;;;;;;19.38;12.63;;;;;;;21.77;100.00;100816.19;5065445;28;20048;-81
2023/08/25 10:20:15;;;;;;;;;;;;;;;21.93;100.00;100810.19;5089235;28;20047;-81
2023/08/25 10:22:45;;;;;;;;;;;;;;;22.05;100.00;100812.28;5030989;28;19920;-81
2023/08/25 10:25:17;;;;;;;24.52;13.90;;;;;;;22.16;100.00;100812.66;5083426;28;19920;-81
2023/08/25 10:27:45;;;;;;;21.38;12.93;;;;;;;22.22;100.00;100819.56;5062115;28;20464;-81
2023/08/25 10:30:14;;;;;;;15.45;12.57;;;;;;;22.25;100.00;100813.19;5074067;28;20513;-80
2023/08/25 10:32:55;;;;;;;19.42;12.10;;;;;;;22.23;100.00;100807.91;5071113;28;20041;-83
2023/08/25 10:35:48;;;;;;;16.98;11.80;;;;;;;22.20;100.00;100800.84;5066559;28;20099;-80
2023/08/25 10:38:19;;;;;;;18.13;12.25;;;;;;;22.17;100.00;100817.13;5030241;28;20056;-80
2023/08/25 10:41:14;;;;;;;14.32;11.32;;;;;;;22.11;100.00;100819.19;5074721;28;20053;-81
2023/08/25 10:43:46;;;;;;;15.85;12.00;;;;;;;22.05;100.00;100806.94;5073084;28;20044;-79
2023/08/25 10:46:13;;;;;;;16.65;10.77;;;;;;;22.02;100.00;100812.41;5078436;28;20075;-80
2023/08/25 10:48:42;;;;;;;18.20;11.73;;;;;;;21.97;100.00;100812.63;5078535;28;20059;-81
2023/08/25 10:51:15;;;;;;;14.77;11.35;;;;;;;21.89;100.00;100805.84;5092208;28;20052;-81
2023/08/25 10:53:44;;;;;;;22.30;12.35;;;;;;;21.81;100.00;100811.56;5032383;28;20048;-82
2023/08/25 10:56:21;;;;;;;21.57;13.40;;;;;;;21.76;100.00;100806.41;5082868;28;20052;-80
2023/08/25 10:58:59;;;;;;;14.55;12.32;;;;;;;21.65;100.00;100814.06;5050588;28;20071;-80
2023/08/25 11:01:36;;;;;;;18.60;12.88;;;;;;;21.54;100.00;100808.28;5089265;28;20047;-80
2023/08/25 11:04:04;;;;;;;22.08;13.63;;;;;;;21.46;100.00;100802.41;5088945;28;20040;-80
2023/08/25 11:06:42;;;;;;;18.00;14.27;;;;;;;21.42;100.00;100818.56;5084932;28;20497;-81
2023/08/25 11:09:32;;;;;;;17.02;13.85;;;;;;;21.35;100.00;100817.09;5078499;28;20407;-79
2023/08/25 11:12:08;;;;;;;20.75;14.32;;;;;;;21.28;100.00;100807.56;5050347;28;20681;-79